Alpine, Arkansas
Current Conditions -  °F | °C
As of 4:31 AM on Friday 24 Oct 2014 (Local Time) from KADF Reporting Station
Haze Haze  
Wind Chill: 48°   Ceiling: Unl
Heat Index: 48°   Visibility: 4mi
Dew Point: 48°   Wind: 0mph
Humidity: 100%   Direction: NA
Pressure: 30.17"   Gusts: NA
Location:  34.23°N, 93.38°W
Report Text: KADF 240931Z AUTO 00000KT 4SM BR CLR 09/09 A3017 RMK AO2
Loading
Personal Weather Stations






























Interactive Weather Map New forecast layout! Learn more

10-Day Weather Forecast

Advertisements
Track Severe Weather on mobile